createdAt,value
2023-04-29T00:00:00.777Z,15.60
2023-04-29T00:02:44.059Z,15.60
2023-04-29T00:05:17.515Z,15.30
2023-04-29T00:07:49.693Z,15.60
2023-04-29T00:10:22.151Z,15.40
2023-04-29T00:12:54.996Z,15.20
2023-04-29T00:15:27.768Z,15.40
2023-04-29T00:20:33.248Z,15.40
2023-04-29T00:23:05.522Z,15.50
2023-04-29T00:25:38.864Z,15.30
2023-04-29T00:28:11.232Z,14.90
2023-04-29T00:30:43.588Z,15.00
2023-04-29T00:33:15.523Z,15.40
2023-04-29T00:35:48.610Z,15.80
2023-04-29T00:40:53.762Z,15.50
2023-04-29T00:43:27.478Z,15.30
2023-04-29T00:45:59.483Z,15.30
2023-04-29T00:48:33.436Z,15.20
2023-04-29T00:51:06.594Z,15.10
2023-04-29T00:53:40.098Z,15.20
2023-04-29T00:56:15.298Z,15.40
2023-04-29T01:01:23.715Z,15.60
2023-04-29T01:03:58.272Z,15.50
2023-04-29T01:06:59.676Z,15.60
2023-04-29T01:09:53.363Z,15.20
2023-04-29T01:13:00.969Z,15.40
2023-04-29T01:15:49.729Z,15.80
2023-04-29T01:18:56.811Z,15.60
2023-04-29T01:21:49.630Z,15.50
2023-04-29T01:24:21.693Z,15.20
2023-04-29T01:30:58.754Z,15.00
2023-04-29T01:34:06.404Z,14.70
2023-04-29T01:37:09.369Z,15.00
2023-04-29T01:40:15.351Z,15.30
2023-04-29T01:43:05.223Z,15.30
2023-04-29T01:45:44.521Z,15.20
2023-04-29T01:51:12.397Z,15.30
2023-04-29T01:53:47.277Z,15.50
2023-04-29T01:56:19.242Z,15.70
2023-04-29T01:59:03.852Z,15.60
2023-04-29T02:01:47.739Z,15.50
2023-04-29T02:04:20.630Z,15.60
2023-04-29T02:09:26.148Z,15.50
2023-04-29T02:12:06.145Z,15.60
2023-04-29T02:14:38.262Z,15.40
2023-04-29T02:17:12.316Z,15.60
2023-04-29T02:19:46.580Z,15.50
2023-04-29T02:24:52.056Z,15.70
2023-04-29T02:27:24.845Z,15.70
2023-04-29T02:29:57.292Z,15.70
2023-04-29T02:37:37.503Z,15.10
2023-04-29T02:40:09.910Z,14.80
2023-04-29T02:42:42.847Z,14.70
2023-04-29T02:45:15.266Z,14.50
2023-04-29T02:52:53.544Z,14.30
2023-04-29T02:55:27.375Z,14.20
2023-04-29T03:00:36.691Z,14.10
2023-04-29T03:10:47.736Z,14.00
2023-04-29T03:13:21.245Z,14.00
2023-04-29T03:15:54.188Z,14.00
2023-04-29T03:18:27.490Z,14.00
2023-04-29T03:20:59.815Z,14.00
2023-04-29T03:23:32.890Z,14.00
2023-04-29T03:28:43.071Z,14.00
2023-04-29T03:33:49.489Z,14.30
2023-04-29T03:36:21.384Z,14.20
2023-04-29T03:41:47.733Z,14.10
2023-04-29T03:44:23.206Z,14.00
2023-04-29T03:46:55.200Z,14.00
2023-04-29T03:49:28.950Z,14.00
2023-04-29T03:52:00.954Z,14.00
2023-04-29T03:57:06.924Z,13.90
2023-04-29T03:59:40.089Z,13.90
2023-04-29T04:02:12.999Z,13.80
2023-04-29T04:04:46.549Z,13.80
2023-04-29T04:07:18.535Z,13.80
2023-04-29T04:10:10.552Z,14.40
2023-04-29T04:12:44.158Z,14.80
2023-04-29T04:15:17.462Z,14.30
2023-04-29T04:17:49.439Z,14.10
2023-04-29T04:20:22.392Z,14.10
2023-04-29T04:28:19.699Z,14.00
2023-04-29T04:31:02.474Z,14.00
2023-04-29T04:33:35.702Z,13.90
2023-04-29T04:36:08.568Z,14.00
2023-04-29T04:38:40.433Z,14.00
2023-04-29T04:41:16.951Z,14.10
2023-04-29T04:43:51.906Z,14.10
2023-04-29T04:46:37.249Z,14.10
2023-04-29T04:49:27.560Z,14.10
2023-04-29T04:51:59.885Z,14.10
2023-04-29T04:54:32.428Z,14.10
2023-04-29T04:57:12.689Z,14.00
2023-04-29T04:59:45.039Z,14.00
2023-04-29T05:04:50.014Z,13.90
2023-04-29T05:07:24.396Z,14.10
2023-04-29T05:10:14.636Z,14.10
2023-04-29T05:12:54.377Z,14.10
2023-04-29T05:15:27.723Z,14.10
2023-04-29T05:20:36.422Z,14.20
2023-04-29T05:25:45.093Z,14.40
2023-04-29T05:28:17.171Z,14.60
2023-04-29T05:30:53.558Z,14.70
2023-04-29T05:33:26.973Z,14.70
2023-04-29T05:38:32.940Z,14.70
2023-04-29T05:41:08.758Z,14.70
2023-04-29T05:43:47.235Z,14.70
2023-04-29T05:48:56.576Z,14.70
2023-04-29T05:51:28.583Z,14.60
2023-04-29T05:56:35.609Z,14.90
2023-04-29T05:59:07.919Z,15.10
2023-04-29T06:01:39.982Z,15.30
2023-04-29T06:04:13.343Z,15.40
2023-04-29T06:07:05.558Z,15.70
2023-04-29T06:09:56.872Z,16.30
2023-04-29T06:12:31.425Z,16.60
2023-04-29T06:15:04.296Z,16.70
2023-04-29T06:20:11.583Z,17.30
2023-04-29T06:22:44.636Z,17.60
2023-04-29T06:25:16.742Z,17.80
2023-04-29T06:27:54.069Z,17.20
2023-04-29T06:30:28.941Z,16.60
2023-04-29T06:33:02.473Z,16.30
2023-04-29T06:35:34.559Z,16.10
2023-04-29T06:38:25.589Z,16.00
2023-04-29T06:41:16.801Z,15.90
2023-04-29T06:46:57.120Z,15.60
2023-04-29T06:49:45.132Z,15.60
2023-04-29T06:52:17.382Z,15.60
2023-04-29T06:57:24.316Z,15.90
2023-04-29T06:59:56.363Z,16.00
2023-04-29T07:02:30.440Z,16.10
2023-04-29T07:05:02.812Z,16.10
2023-04-29T07:07:35.440Z,16.10
2023-04-29T07:12:40.353Z,16.30
2023-04-29T07:17:45.402Z,16.50
2023-04-29T07:20:21.354Z,16.70
2023-04-29T07:22:54.594Z,16.80
2023-04-29T07:25:29.582Z,16.90
2023-04-29T07:28:01.493Z,17.10
2023-04-29T07:30:34.171Z,17.30
2023-04-29T07:33:06.315Z,17.70
2023-04-29T07:35:39.044Z,17.80
2023-04-29T07:38:11.343Z,18.50
2023-04-29T07:40:45.342Z,19.30
2023-04-29T07:43:17.924Z,19.50
2023-04-29T07:45:50.586Z,20.30
2023-04-29T07:48:22.800Z,20.50
2023-04-29T07:56:05.824Z,20.10
2023-04-29T07:58:37.924Z,20.70
2023-04-29T08:01:12.086Z,22.40
2023-04-29T08:06:22.313Z,22.10
2023-04-29T08:08:56.237Z,22.30
2023-04-29T08:14:00.630Z,20.60
2023-04-29T08:16:33.284Z,19.80
2023-04-29T08:19:05.234Z,19.70
2023-04-29T08:21:37.943Z,19.60
2023-04-29T08:24:09.837Z,19.90
2023-04-29T08:26:42.751Z,21.10
2023-04-29T08:31:48.922Z,22.50
2023-04-29T08:36:53.831Z,22.00
2023-04-29T08:39:26.121Z,22.60
2023-04-29T08:41:59.375Z,22.70
2023-04-29T08:44:32.642Z,22.60
2023-04-29T08:47:06.617Z,22.60
2023-04-29T08:49:38.517Z,22.10
2023-04-29T08:52:11.945Z,22.90
2023-04-29T08:54:44.279Z,22.60
2023-04-29T08:57:17.003Z,22.20
2023-04-29T09:02:23.192Z,21.30
2023-04-29T09:05:01.219Z,21.20
2023-04-29T09:07:34.347Z,20.60
2023-04-29T09:10:08.266Z,20.20
2023-04-29T09:15:13.174Z,19.60
2023-04-29T09:17:48.187Z,19.30
2023-04-29T09:22:59.979Z,19.40
2023-04-29T09:25:32.879Z,19.40
2023-04-29T09:28:17.450Z,19.50
2023-04-29T09:30:51.005Z,19.20
2023-04-29T09:33:22.967Z,19.30
2023-04-29T09:35:55.584Z,19.10
2023-04-29T09:41:10.179Z,19.00
2023-04-29T09:48:47.833Z,18.70
2023-04-29T09:53:52.738Z,18.70
2023-04-29T09:56:29.354Z,18.90
2023-04-29T09:59:09.381Z,18.90
2023-04-29T10:04:17.429Z,18.80
2023-04-29T10:06:52.938Z,18.80
2023-04-29T10:09:24.847Z,18.90
2023-04-29T10:11:57.523Z,18.80
2023-04-29T10:14:35.334Z,18.60
2023-04-29T10:17:17.749Z,18.70
2023-04-29T10:20:06.154Z,18.90
2023-04-29T10:22:54.825Z,19.40
2023-04-29T10:28:01.614Z,19.30
2023-04-29T10:30:36.160Z,19.80
2023-04-29T10:33:09.684Z,20.40
2023-04-29T10:35:45.401Z,22.40
2023-04-29T10:38:40.241Z,20.90
2023-04-29T10:41:24.998Z,20.80
2023-04-29T10:44:00.648Z,20.80
2023-04-29T10:51:43.303Z,20.90
2023-04-29T10:54:26.183Z,20.90
2023-04-29T10:56:58.093Z,20.70
2023-04-29T10:59:33.637Z,20.80
2023-04-29T11:02:06.061Z,21.00
2023-04-29T11:05:11.436Z,21.70
2023-04-29T11:07:46.109Z,21.90
2023-04-29T11:10:18.801Z,22.40
2023-04-29T11:13:28.139Z,22.10
2023-04-29T11:16:11.856Z,21.70
2023-04-29T11:19:08.992Z,21.20
2023-04-29T11:29:23.085Z,20.60
2023-04-29T11:32:04.734Z,20.50
2023-04-29T11:42:21.403Z,20.50
2023-04-29T11:44:57.362Z,20.30
2023-04-29T11:47:31.056Z,20.40
2023-04-29T11:50:09.120Z,20.60
2023-04-29T11:52:41.614Z,20.80
2023-04-29T11:57:51.050Z,20.40
2023-04-29T12:00:25.204Z,20.60
2023-04-29T12:02:58.821Z,20.90
2023-04-29T12:08:04.268Z,20.80
2023-04-29T12:10:36.905Z,20.70
2023-04-29T12:13:10.348Z,20.60
2023-04-29T12:18:18.565Z,20.30
2023-04-29T12:23:28.391Z,20.10
2023-04-29T12:26:01.820Z,20.20
2023-04-29T12:33:46.856Z,21.20
2023-04-29T12:36:19.417Z,21.30
2023-04-29T12:38:55.003Z,19.50
2023-04-29T12:41:42.752Z,21.30
2023-04-29T12:44:16.677Z,21.40
2023-04-29T12:46:48.640Z,21.60
2023-04-29T12:51:53.669Z,20.70
2023-04-29T12:59:31.589Z,21.10
2023-04-29T13:02:03.594Z,20.90
2023-04-29T13:04:36.234Z,20.80
2023-04-29T13:07:08.285Z,20.70
2023-04-29T13:19:52.506Z,20.40
2023-04-29T13:22:24.504Z,20.30
2023-04-29T13:24:57.342Z,20.50
2023-04-29T13:27:29.297Z,20.50
2023-04-29T13:32:43.625Z,20.70
2023-04-29T13:35:21.854Z,20.70
2023-04-29T13:37:53.727Z,20.70
2023-04-29T13:40:28.064Z,20.60
2023-04-29T13:43:05.957Z,20.50
2023-04-29T14:04:46.400Z,20.10
2023-04-29T14:07:18.396Z,20.20
2023-04-29T14:27:44.615Z,19.70
2023-04-29T14:32:49.677Z,19.80
2023-04-29T14:37:54.513Z,19.70
2023-04-29T14:48:08.306Z,19.60
2023-04-29T14:53:13.021Z,19.60
2023-04-29T15:03:24.108Z,19.40
2023-04-29T15:05:59.178Z,19.30
2023-04-29T15:21:36.079Z,19.40
2023-04-29T15:26:42.092Z,19.20
2023-04-29T15:29:15.136Z,19.30
2023-04-29T15:31:47.852Z,19.20
2023-04-29T15:34:19.731Z,19.00
2023-04-29T15:36:52.807Z,18.30
2023-04-29T15:44:33.079Z,19.00
2023-04-29T15:47:05.046Z,18.90
2023-04-29T15:52:11.006Z,18.60
2023-04-29T16:00:13.899Z,18.30
2023-04-29T16:05:19.158Z,18.00
2023-04-29T16:10:24.389Z,17.90
2023-04-29T16:15:30.415Z,18.00
2023-04-29T16:18:02.385Z,18.00
2023-04-29T16:20:35.369Z,17.90
2023-04-29T16:26:02.164Z,18.00
2023-04-29T16:28:34.567Z,17.90
2023-04-29T16:31:08.138Z,17.70
2023-04-29T16:36:14.349Z,17.60
2023-04-29T16:41:18.862Z,17.60
2023-04-29T16:43:51.586Z,17.50
2023-04-29T16:54:02.629Z,17.20
2023-04-29T16:56:35.358Z,17.10
2023-04-29T16:59:08.452Z,17.20
2023-04-29T17:04:35.973Z,17.30
2023-04-29T17:07:09.770Z,17.30
2023-04-29T17:09:41.719Z,17.30
2023-04-29T17:12:14.641Z,17.40
2023-04-29T17:19:55.393Z,17.20
2023-04-29T17:27:34.710Z,16.90
2023-04-29T17:30:08.100Z,16.80
2023-04-29T17:32:41.784Z,16.80
2023-04-29T17:35:13.721Z,16.70
2023-04-29T17:37:47.995Z,16.70
2023-04-29T17:40:20.023Z,16.60
2023-04-29T17:42:52.924Z,16.60
2023-04-29T17:45:25.797Z,16.60
2023-04-29T17:50:30.880Z,16.40
2023-04-29T17:53:03.637Z,16.40
2023-04-29T17:55:40.002Z,16.30
2023-04-29T17:58:12.147Z,16.20
2023-04-29T18:00:46.567Z,16.20
2023-04-29T18:05:51.992Z,20.10
2023-04-29T18:10:57.113Z,15.80
2023-04-29T18:13:29.534Z,15.70
2023-04-29T18:26:15.770Z,15.50
2023-04-29T18:28:48.519Z,15.40
2023-04-29T18:33:55.843Z,15.30
2023-04-29T18:36:29.091Z,15.40
2023-04-29T18:41:34.154Z,15.40
2023-04-29T18:44:06.870Z,15.20
2023-04-29T18:49:16.415Z,15.20
2023-04-29T18:56:55.926Z,15.20
2023-04-29T18:59:30.030Z,15.10
2023-04-29T19:02:02.129Z,15.20
2023-04-29T19:04:36.197Z,15.10
2023-04-29T19:07:08.125Z,15.10
2023-04-29T19:09:40.978Z,15.10
2023-04-29T19:12:12.837Z,15.10
2023-04-29T19:14:45.703Z,15.00
2023-04-29T19:17:18.327Z,15.00
2023-04-29T19:19:50.302Z,14.90
2023-04-29T19:22:23.088Z,14.90
2023-04-29T19:30:00.907Z,14.80
2023-04-29T19:32:34.152Z,14.80
2023-04-29T19:35:07.779Z,14.80
2023-04-29T19:37:40.491Z,14.80
2023-04-29T19:40:13.420Z,14.80
2023-04-29T19:42:45.746Z,14.80
2023-04-29T19:50:23.703Z,14.70
2023-04-29T19:52:56.531Z,14.70
2023-04-29T19:58:02.026Z,14.60
2023-04-29T20:00:36.704Z,14.60
2023-04-29T20:03:09.089Z,14.60
2023-04-29T20:05:41.803Z,14.50
2023-04-29T20:08:14.239Z,14.50
2023-04-29T20:10:46.316Z,14.40
2023-04-29T20:15:51.846Z,14.40
2023-04-29T20:18:24.141Z,14.40
2023-04-29T20:26:22.699Z,14.40
2023-04-29T20:34:20.053Z,14.20
2023-04-29T20:36:52.385Z,14.20
2023-04-29T20:39:28.048Z,14.10
2023-04-29T20:52:37.218Z,14.00
2023-04-29T20:57:43.097Z,14.00
2023-04-29T21:00:15.242Z,14.00
2023-04-29T21:02:47.992Z,14.00
2023-04-29T21:05:20.034Z,14.00
2023-04-29T21:10:25.797Z,14.00
2023-04-29T21:12:58.733Z,13.90
2023-04-29T21:18:04.931Z,13.80
2023-04-29T21:20:37.265Z,13.80
2023-04-29T21:23:09.591Z,13.70
2023-04-29T21:25:41.436Z,13.60
2023-04-29T21:30:48.953Z,13.60
2023-04-29T21:33:21.886Z,13.50
2023-04-29T21:35:53.855Z,13.50
2023-04-29T21:41:00.635Z,13.50
2023-04-29T21:43:33.935Z,13.50
2023-04-29T21:46:07.136Z,13.50
2023-04-29T21:48:40.476Z,13.50
2023-04-29T21:51:12.530Z,13.50
2023-04-29T21:53:46.196Z,13.40
2023-04-29T21:56:18.255Z,13.40
2023-04-29T21:58:51.228Z,13.30
2023-04-29T22:01:41.804Z,13.30
2023-04-29T22:04:16.738Z,13.30
2023-04-29T22:06:48.647Z,13.20
2023-04-29T22:09:21.919Z,13.20
2023-04-29T22:14:27.030Z,13.20
2023-04-29T22:16:59.028Z,13.30
2023-04-29T22:19:31.695Z,13.20
2023-04-29T22:22:04.201Z,13.20
2023-04-29T22:24:36.897Z,13.30
2023-04-29T22:27:08.888Z,13.20
2023-04-29T22:29:41.543Z,13.20
2023-04-29T22:32:14.349Z,13.20
2023-04-29T22:34:46.702Z,13.20
2023-04-29T22:42:24.583Z,13.20
2023-04-29T22:47:48.989Z,13.20
2023-04-29T23:00:33.327Z,13.20
2023-04-29T23:03:05.698Z,13.00
2023-04-29T23:08:11.100Z,13.20
2023-04-29T23:10:50.783Z,13.30
2023-04-29T23:15:57.713Z,13.20
2023-04-29T23:18:30.853Z,13.20
2023-04-29T23:21:03.512Z,13.30
2023-04-29T23:26:09.071Z,13.20
2023-04-29T23:31:13.697Z,13.20
2023-04-29T23:36:18.762Z,13.20
2023-04-29T23:41:23.679Z,13.20
2023-04-29T23:44:01.317Z,13.20
2023-04-29T23:46:34.609Z,13.20
2023-04-29T23:54:12.001Z,13.00
2023-04-29T23:56:43.844Z,12.90
2023-04-29T23:59:16.539Z,12.80
